createdAt,value
2022-08-17T00:00:42.664Z,8.23
2022-08-17T00:03:13.675Z,7.43
2022-08-17T00:05:47.187Z,8.40
2022-08-17T00:08:17.484Z,8.67
2022-08-17T00:10:47.793Z,7.83
2022-08-17T00:13:22.229Z,11.07
2022-08-17T00:15:51.066Z,11.27
2022-08-17T00:19:06.754Z,7.80
2022-08-17T00:21:10.836Z,9.80
2022-08-17T00:23:47.729Z,9.13
2022-08-17T00:26:43.144Z,7.27
2022-08-17T00:29:08.975Z,7.77
2022-08-17T00:31:38.105Z,9.43
2022-08-17T00:34:08.736Z,9.30
2022-08-17T00:36:37.694Z,9.47
2022-08-17T00:39:06.337Z,7.27
2022-08-17T00:41:35.793Z,8.43
2022-08-17T00:44:06.164Z,7.67
2022-08-17T00:46:40.366Z,9.20
2022-08-17T00:49:09.970Z,8.67
2022-08-17T00:51:43.375Z,7.47
2022-08-17T00:54:14.955Z,8.43
2022-08-17T00:56:47.753Z,7.47
2022-08-17T00:59:20.062Z,11.90
2022-08-17T01:01:51.290Z,8.93
2022-08-17T01:04:23.122Z,9.03
2022-08-17T01:06:52.852Z,7.73
2022-08-17T01:09:22.433Z,8.43
2022-08-17T01:11:52.327Z,8.40
2022-08-17T01:14:22.264Z,7.57
2022-08-17T01:16:54.650Z,8.33
2022-08-17T01:19:26.231Z,8.33
2022-08-17T01:22:01.947Z,10.10
2022-08-17T01:24:33.860Z,9.57
2022-08-17T01:27:02.667Z,7.40
2022-08-17T01:29:40.460Z,11.07
2022-08-17T01:32:09.981Z,8.00
2022-08-17T01:34:43.465Z,8.07
2022-08-17T01:37:19.644Z,8.10
2022-08-17T01:39:52.922Z,9.30
2022-08-17T01:42:25.327Z,7.60
2022-08-17T01:44:57.965Z,8.77
2022-08-17T01:47:26.337Z,10.03
2022-08-17T01:49:54.638Z,8.07
2022-08-17T01:52:23.793Z,10.53
2022-08-17T01:54:54.043Z,8.20
2022-08-17T01:57:22.673Z,9.63
2022-08-17T01:59:50.913Z,12.10
2022-08-17T02:02:30.489Z,10.90
2022-08-17T02:05:00.193Z,12.63
2022-08-17T02:07:28.948Z,11.47
2022-08-17T02:09:58.640Z,10.73
2022-08-17T02:12:38.925Z,10.00
2022-08-17T02:15:10.337Z,9.07
2022-08-17T02:17:40.515Z,9.97
2022-08-17T02:20:10.646Z,8.90
2022-08-17T02:22:41.921Z,7.10
2022-08-17T02:25:14.876Z,11.30
2022-08-17T02:27:43.568Z,8.30
2022-08-17T02:30:58.942Z,9.07
2022-08-17T02:33:04.267Z,12.73
2022-08-17T02:35:37.613Z,12.43
2022-08-17T02:38:07.813Z,11.77
2022-08-17T02:40:40.644Z,10.07
2022-08-17T02:43:09.733Z,10.73
2022-08-17T02:45:38.103Z,7.83
2022-08-17T02:48:06.548Z,7.90
2022-08-17T02:50:34.818Z,9.80
2022-08-17T02:53:03.209Z,12.07
2022-08-17T02:55:35.290Z,10.30
2022-08-17T02:58:05.759Z,9.70
2022-08-17T03:00:36.239Z,15.73
2022-08-17T03:03:06.697Z,10.97
2022-08-17T03:05:37.630Z,10.27
2022-08-17T03:08:07.777Z,8.53
2022-08-17T03:10:41.801Z,8.73
2022-08-17T03:13:14.309Z,11.67
2022-08-17T03:15:45.793Z,7.23
2022-08-17T03:18:25.096Z,8.97
2022-08-17T03:20:55.059Z,7.87
2022-08-17T03:23:25.319Z,8.87
2022-08-17T03:25:54.746Z,9.17
2022-08-17T03:28:25.258Z,11.03
2022-08-17T03:30:53.913Z,10.70
2022-08-17T03:33:22.822Z,12.50
2022-08-17T03:35:51.530Z,8.57
2022-08-17T03:38:19.957Z,8.87
2022-08-17T03:40:57.631Z,12.90
2022-08-17T03:43:31.401Z,11.80
2022-08-17T03:46:28.725Z,8.20
2022-08-17T03:49:21.987Z,10.20
2022-08-17T03:52:07.501Z,7.83
2022-08-17T03:54:52.997Z,8.63
2022-08-17T03:57:21.323Z,8.40
2022-08-17T03:59:52.468Z,8.13
2022-08-17T04:02:24.266Z,8.03
2022-08-17T04:04:52.770Z,8.87
2022-08-17T04:07:22.040Z,8.00
2022-08-17T04:09:50.652Z,7.77
2022-08-17T04:12:20.926Z,8.23
2022-08-17T04:14:53.637Z,7.27
2022-08-17T04:17:25.580Z,9.20
2022-08-17T04:19:54.763Z,11.43
2022-08-17T04:22:30.600Z,11.53
2022-08-17T04:25:05.709Z,8.77
2022-08-17T04:27:34.095Z,9.60
2022-08-17T04:30:05.266Z,9.27
2022-08-17T04:33:05.764Z,8.77
2022-08-17T04:35:25.028Z,9.03
2022-08-17T04:37:53.530Z,10.93
2022-08-17T04:40:40.654Z,8.87
2022-08-17T04:43:11.849Z,11.57
2022-08-17T04:45:55.556Z,10.40
2022-08-17T04:48:29.818Z,9.23
2022-08-17T04:51:04.850Z,8.40
2022-08-17T04:53:33.099Z,14.07
2022-08-17T04:56:01.395Z,8.63
2022-08-17T04:58:29.802Z,13.40
2022-08-17T05:00:59.471Z,10.20
2022-08-17T05:03:29.113Z,9.53
2022-08-17T05:05:57.361Z,9.23
2022-08-17T05:08:25.650Z,8.47
2022-08-17T05:10:54.097Z,8.93
2022-08-17T05:13:24.333Z,9.80
2022-08-17T05:15:56.308Z,10.07
2022-08-17T05:18:26.018Z,9.03
2022-08-17T05:20:54.486Z,8.90
2022-08-17T05:23:25.030Z,9.30
2022-08-17T05:25:56.325Z,9.13
2022-08-17T05:28:28.057Z,9.47
2022-08-17T05:31:01.206Z,9.53
2022-08-17T05:33:33.637Z,11.70
2022-08-17T05:36:03.581Z,10.00
2022-08-17T05:38:32.621Z,9.30
2022-08-17T05:41:03.408Z,11.47
2022-08-17T05:43:34.053Z,10.67
2022-08-17T05:46:53.312Z,11.07
2022-08-17T05:49:34.330Z,11.00
2022-08-17T05:52:23.948Z,9.13
2022-08-17T05:55:30.821Z,11.60
2022-08-17T05:58:35.079Z,11.37
2022-08-17T06:01:19.514Z,10.40
2022-08-17T06:04:09.680Z,14.50
2022-08-17T06:07:06.729Z,9.87
2022-08-17T06:09:48.447Z,11.83
2022-08-17T06:12:41.411Z,11.97
2022-08-17T06:15:24.986Z,11.70
2022-08-17T06:18:05.819Z,11.47
2022-08-17T06:20:49.437Z,17.13
2022-08-17T06:23:59.005Z,11.87
2022-08-17T06:26:42.334Z,12.43
2022-08-17T06:29:46.883Z,12.17
2022-08-17T06:32:30.172Z,12.80
2022-08-17T06:35:09.795Z,11.80
2022-08-17T06:37:59.335Z,10.40
2022-08-17T06:41:15.836Z,13.43
2022-08-17T06:44:04.017Z,13.03
2022-08-17T06:46:37.102Z,10.37
2022-08-17T06:49:14.925Z,12.40
2022-08-17T06:51:48.451Z,12.03
2022-08-17T06:54:22.983Z,14.17
2022-08-17T06:56:59.963Z,11.53
2022-08-17T06:59:47.122Z,9.87
2022-08-17T07:02:52.742Z,12.87
2022-08-17T07:05:23.363Z,13.63
2022-08-17T07:08:04.600Z,12.23
2022-08-17T07:10:38.758Z,12.00
2022-08-17T07:13:29.466Z,13.80
2022-08-17T07:16:09.199Z,11.93
2022-08-17T07:18:37.629Z,13.03
2022-08-17T07:21:25.813Z,14.10
2022-08-17T07:24:26.211Z,13.60
2022-08-17T07:27:12.495Z,11.60
2022-08-17T07:29:47.917Z,11.40
2022-08-17T07:32:19.450Z,10.13
2022-08-17T07:35:02.268Z,8.40
2022-08-17T07:37:33.620Z,15.53
2022-08-17T07:40:17.338Z,9.90
2022-08-17T07:43:23.223Z,11.47
2022-08-17T07:46:18.030Z,8.07
2022-08-17T07:48:50.247Z,8.77
2022-08-17T07:51:23.431Z,9.00
2022-08-17T07:53:51.819Z,8.17
2022-08-17T07:56:38.622Z,6.43
2022-08-17T07:59:16.525Z,9.13
2022-08-17T08:01:49.719Z,7.77
2022-08-17T08:04:59.323Z,7.93
2022-08-17T08:07:26.929Z,10.57
2022-08-17T08:10:06.493Z,7.57
2022-08-17T08:12:37.703Z,7.50
2022-08-17T08:15:18.676Z,7.20
2022-08-17T08:17:52.946Z,7.00
2022-08-17T08:20:42.515Z,7.97
2022-08-17T08:23:47.480Z,6.45
2022-08-17T08:26:26.382Z,6.03
2022-08-17T08:29:03.525Z,7.10
2022-08-17T08:31:53.414Z,7.57
2022-08-17T08:35:00.800Z,6.38
2022-08-17T08:37:36.640Z,5.45
2022-08-17T08:40:12.130Z,5.70
2022-08-17T08:42:49.852Z,7.17
2022-08-17T08:45:24.070Z,6.13
2022-08-17T08:48:46.105Z,7.47
2022-08-17T08:51:09.668Z,8.83
2022-08-17T08:53:48.570Z,7.57
2022-08-17T08:56:25.985Z,7.90
2022-08-17T08:59:01.336Z,8.17
2022-08-17T09:01:49.994Z,9.97
2022-08-17T09:04:29.452Z,6.93
2022-08-17T09:07:11.871Z,7.77
2022-08-17T09:09:50.983Z,7.80
2022-08-17T09:12:26.953Z,8.10
2022-08-17T09:15:02.474Z,5.93
2022-08-17T09:17:40.073Z,7.83
2022-08-17T09:20:28.230Z,6.43
2022-08-17T09:23:20.385Z,8.53
2022-08-17T09:25:56.255Z,6.07
2022-08-17T09:28:30.710Z,7.63
2022-08-17T09:31:03.747Z,7.23
2022-08-17T09:33:38.746Z,7.87
2022-08-17T09:36:13.127Z,6.70
2022-08-17T09:38:58.393Z,6.40
2022-08-17T09:41:35.753Z,7.20
2022-08-17T09:44:22.911Z,8.70
2022-08-17T09:46:56.903Z,10.07
2022-08-17T09:49:31.908Z,8.50
2022-08-17T09:52:06.787Z,8.80
2022-08-17T09:54:40.144Z,11.77
2022-08-17T09:57:31.421Z,11.67
2022-08-17T10:00:18.852Z,9.60
2022-08-17T10:03:09.595Z,9.83
2022-08-17T10:05:46.404Z,10.87
2022-08-17T10:08:25.587Z,11.17
2022-08-17T10:11:06.904Z,10.07
2022-08-17T10:13:47.205Z,13.73
2022-08-17T10:16:36.271Z,9.23
2022-08-17T10:19:13.296Z,9.23
2022-08-17T10:22:32.687Z,8.70
2022-08-17T10:25:23.609Z,7.83
2022-08-17T10:27:57.630Z,6.73
2022-08-17T10:30:29.291Z,5.37
2022-08-17T10:33:01.419Z,6.00
2022-08-17T10:35:39.553Z,5.93
2022-08-17T10:38:26.493Z,5.63
2022-08-17T10:40:58.977Z,5.33
2022-08-17T10:43:44.668Z,6.70
2022-08-17T10:46:54.248Z,5.93
2022-08-17T10:49:33.915Z,7.37
2022-08-17T10:52:05.774Z,6.63
2022-08-17T10:54:46.595Z,6.23
2022-08-17T10:57:41.905Z,7.10
2022-08-17T11:00:17.057Z,6.87
2022-08-17T11:02:50.893Z,6.27
2022-08-17T11:05:43.950Z,5.90
2022-08-17T11:08:43.595Z,9.17
2022-08-17T11:11:35.786Z,7.93
2022-08-17T11:14:18.102Z,7.77
2022-08-17T11:17:03.055Z,8.53
2022-08-17T11:20:14.070Z,7.33
2022-08-17T11:23:22.302Z,12.60
2022-08-17T11:25:54.769Z,9.10
2022-08-17T11:28:28.131Z,8.83
2022-08-17T11:31:02.820Z,11.17
2022-08-17T11:33:57.449Z,9.13
2022-08-17T11:36:46.528Z,8.77
2022-08-17T11:39:30.720Z,8.47
2022-08-17T11:42:09.012Z,8.67
2022-08-17T11:44:53.661Z,12.93
2022-08-17T11:48:09.440Z,10.37
2022-08-17T11:51:08.046Z,9.93
2022-08-17T11:56:54.335Z,8.27
2022-08-17T11:59:55.053Z,9.23
2022-08-17T12:02:35.156Z,10.00
2022-08-17T12:05:27.483Z,9.97
2022-08-17T12:08:20.153Z,9.90
2022-08-17T12:11:02.989Z,8.73
2022-08-17T12:13:38.615Z,6.90
2022-08-17T12:16:09.992Z,6.93
2022-08-17T12:18:42.120Z,9.37
2022-08-17T12:21:41.509Z,7.67
2022-08-17T12:24:22.906Z,6.97
2022-08-17T12:26:57.191Z,5.37
2022-08-17T12:29:35.689Z,5.43
2022-08-17T12:32:08.386Z,5.83
2022-08-17T12:34:41.620Z,5.47
2022-08-17T12:37:16.862Z,4.80
2022-08-17T12:39:55.055Z,5.63
2022-08-17T12:42:27.311Z,6.40
2022-08-17T12:44:55.937Z,7.10
2022-08-17T12:47:24.428Z,4.83
2022-08-17T12:50:28.234Z,5.80
2022-08-17T12:53:02.015Z,5.30
2022-08-17T12:55:38.815Z,4.30
2022-08-17T12:58:14.389Z,8.17
2022-08-17T13:00:51.648Z,6.07
2022-08-17T13:03:22.990Z,5.90
2022-08-17T13:06:00.961Z,4.93
2022-08-17T13:08:33.135Z,4.20
2022-08-17T13:11:04.953Z,6.00
2022-08-17T13:13:35.362Z,4.00
2022-08-17T13:16:06.098Z,3.60
2022-08-17T13:18:41.927Z,5.00
2022-08-17T13:21:19.334Z,5.00
2022-08-17T13:23:57.105Z,3.37
2022-08-17T13:26:31.486Z,5.80
2022-08-17T13:29:00.760Z,3.50
2022-08-17T13:31:49.802Z,3.77
2022-08-17T13:34:34.174Z,5.10
2022-08-17T13:37:30.938Z,3.90
2022-08-17T13:40:02.343Z,3.63
2022-08-17T13:42:51.459Z,3.70
2022-08-17T13:45:53.345Z,4.60
2022-08-17T13:48:25.709Z,3.67
2022-08-17T13:51:21.013Z,4.83
2022-08-17T13:54:24.139Z,3.33
2022-08-17T13:57:00.345Z,4.93
2022-08-17T13:59:54.412Z,5.60
2022-08-17T14:02:28.592Z,3.90
2022-08-17T14:04:58.572Z,4.60
2022-08-17T14:07:33.739Z,4.97
2022-08-17T14:10:05.602Z,3.77
2022-08-17T14:12:35.473Z,6.03
2022-08-17T14:15:05.914Z,4.33
2022-08-17T14:17:38.617Z,5.67
2022-08-17T14:20:10.458Z,4.10
2022-08-17T14:22:41.222Z,4.23
2022-08-17T14:25:10.364Z,3.70
2022-08-17T14:27:41.801Z,3.87
2022-08-17T14:30:24.166Z,3.50
2022-08-17T14:32:53.259Z,4.63
2022-08-17T14:35:23.837Z,2.73
2022-08-17T14:37:53.104Z,3.23
2022-08-17T14:40:24.549Z,3.17
2022-08-17T14:42:55.040Z,5.17
2022-08-17T14:45:31.469Z,4.37
2022-08-17T14:48:04.011Z,2.87
2022-08-17T14:50:35.558Z,4.40
2022-08-17T14:53:05.858Z,3.40
2022-08-17T14:55:34.631Z,3.70
2022-08-17T14:58:03.940Z,2.87
2022-08-17T15:00:33.846Z,4.93
2022-08-17T15:03:02.732Z,4.33
2022-08-17T15:05:33.537Z,4.87
2022-08-17T15:08:02.643Z,5.00
2022-08-17T15:10:31.286Z,3.30
2022-08-17T15:13:00.389Z,4.03
2022-08-17T15:15:29.867Z,2.37
2022-08-17T15:18:00.617Z,3.50
2022-08-17T15:20:30.168Z,2.47
2022-08-17T15:22:59.535Z,4.90
2022-08-17T15:25:29.781Z,2.43
2022-08-17T15:27:58.734Z,2.23
2022-08-17T15:30:27.178Z,3.20
2022-08-17T15:32:55.858Z,2.60
2022-08-17T15:35:28.913Z,3.77
2022-08-17T15:38:06.524Z,4.70
2022-08-17T15:40:42.013Z,5.20
2022-08-17T15:43:15.119Z,3.23
2022-08-17T15:45:44.430Z,3.27
2022-08-17T15:48:25.277Z,4.63
2022-08-17T15:50:55.162Z,2.83
2022-08-17T15:53:23.413Z,3.33
2022-08-17T15:55:52.099Z,5.13
2022-08-17T15:58:21.053Z,5.50
2022-08-17T16:01:14.882Z,5.60
2022-08-17T16:04:04.223Z,2.67
2022-08-17T16:06:36.553Z,3.27
2022-08-17T16:09:05.372Z,3.53
2022-08-17T16:11:33.667Z,3.73
2022-08-17T16:14:01.957Z,4.83
2022-08-17T16:16:31.169Z,4.83
2022-08-17T16:18:59.498Z,4.10
2022-08-17T16:21:29.712Z,5.13
2022-08-17T16:24:03.550Z,5.07
2022-08-17T16:26:34.274Z,4.23
2022-08-17T16:29:05.234Z,3.80
2022-08-17T16:31:33.986Z,5.87
2022-08-17T16:34:17.744Z,6.80
2022-08-17T16:36:55.029Z,8.13
2022-08-17T16:39:27.409Z,9.77
2022-08-17T16:41:56.300Z,7.20
2022-08-17T16:44:25.913Z,7.90
2022-08-17T16:46:54.510Z,8.47
2022-08-17T16:49:35.447Z,12.17
2022-08-17T16:52:07.696Z,10.97
2022-08-17T16:54:39.172Z,8.77
2022-08-17T16:57:07.484Z,8.87
2022-08-17T16:59:40.994Z,9.37
2022-08-17T17:02:14.803Z,9.63
2022-08-17T17:04:50.574Z,11.03
2022-08-17T17:07:36.575Z,10.60
2022-08-17T17:10:11.077Z,11.50
2022-08-17T17:13:03.695Z,7.00
2022-08-17T17:15:39.438Z,6.43
2022-08-17T17:18:13.940Z,5.30
2022-08-17T17:20:50.661Z,6.67
2022-08-17T17:23:33.901Z,3.73
2022-08-17T17:26:24.784Z,3.57
2022-08-17T17:29:06.362Z,5.63
2022-08-17T17:31:42.236Z,6.07
2022-08-17T17:34:13.764Z,6.60
2022-08-17T17:36:47.064Z,5.13
2022-08-17T17:39:18.874Z,2.93
2022-08-17T17:41:53.931Z,2.70
2022-08-17T17:44:27.444Z,3.70
2022-08-17T17:46:58.817Z,7.37
2022-08-17T17:49:29.812Z,6.03
2022-08-17T17:52:08.810Z,7.30
2022-08-17T17:54:52.246Z,5.07
2022-08-17T17:57:30.686Z,8.33
2022-08-17T18:00:08.123Z,8.33
2022-08-17T18:02:56.533Z,7.27
2022-08-17T18:05:48.027Z,7.10
2022-08-17T18:08:41.198Z,13.27
2022-08-17T18:11:24.422Z,7.00
2022-08-17T18:14:07.567Z,6.20
2022-08-17T18:16:36.251Z,8.00
2022-08-17T18:19:06.154Z,7.90
2022-08-17T18:21:38.839Z,8.13
2022-08-17T18:24:10.454Z,6.37
2022-08-17T18:26:48.046Z,6.80
2022-08-17T18:29:45.217Z,7.67
2022-08-17T18:32:27.661Z,8.17
2022-08-17T18:34:59.660Z,9.23
2022-08-17T18:37:44.982Z,11.47
2022-08-17T18:40:40.566Z,12.27
2022-08-17T18:43:13.376Z,13.20
2022-08-17T18:45:48.232Z,13.30
2022-08-17T18:48:32.844Z,16.43
2022-08-17T18:51:43.459Z,14.27
2022-08-17T18:54:19.819Z,14.43
2022-08-17T18:56:55.113Z,16.77
2022-08-17T18:59:36.410Z,16.70
2022-08-17T19:02:59.667Z,14.40
2022-08-17T19:05:50.115Z,19.33
2022-08-17T19:08:25.125Z,17.57
2022-08-17T19:11:00.175Z,12.40
2022-08-17T19:13:33.451Z,14.03
2022-08-17T19:16:15.087Z,13.57
2022-08-17T19:18:51.963Z,12.03
2022-08-17T19:21:25.048Z,12.80
2022-08-17T19:24:27.556Z,14.07
2022-08-17T19:26:58.911Z,12.60
2022-08-17T19:29:44.355Z,12.20
2022-08-17T19:32:17.358Z,16.50
2022-08-17T19:34:48.141Z,12.67
2022-08-17T19:37:32.910Z,16.00
2022-08-17T19:40:48.989Z,14.23
2022-08-17T19:43:17.661Z,13.17
2022-08-17T19:45:58.315Z,15.17
2022-08-17T19:48:50.921Z,15.47
2022-08-17T19:51:29.746Z,14.73
2022-08-17T19:54:06.591Z,16.43
2022-08-17T19:56:44.010Z,16.70
2022-08-17T19:59:19.681Z,20.37
2022-08-17T20:01:52.350Z,16.07
2022-08-17T20:04:35.045Z,17.43
2022-08-17T20:07:08.088Z,22.93
2022-08-17T20:09:39.389Z,20.63
2022-08-17T20:12:11.523Z,22.17
2022-08-17T20:14:55.376Z,21.70
2022-08-17T20:17:28.619Z,23.13
2022-08-17T20:20:04.909Z,22.00
2022-08-17T20:22:49.603Z,22.47
2022-08-17T20:25:29.911Z,21.00
2022-08-17T20:28:06.851Z,24.77
2022-08-17T20:30:38.963Z,23.10
2022-08-17T20:33:19.450Z,25.83
2022-08-17T20:36:06.035Z,26.47
2022-08-17T20:38:43.653Z,27.43
2022-08-17T20:41:16.040Z,28.23
2022-08-17T20:43:52.267Z,25.37
2022-08-17T20:46:36.240Z,24.17
2022-08-17T20:49:19.045Z,24.63
2022-08-17T20:52:02.372Z,26.63
2022-08-17T20:54:49.801Z,26.43
2022-08-17T20:57:47.424Z,23.73
2022-08-17T21:00:44.747Z,23.80
2022-08-17T21:03:49.192Z,22.87
2022-08-17T21:06:27.927Z,21.63
2022-08-17T21:08:59.925Z,23.03
2022-08-17T21:11:56.833Z,22.77
2022-08-17T21:14:43.609Z,24.60
2022-08-17T21:17:47.457Z,25.00
2022-08-17T21:20:33.022Z,23.20
2022-08-17T21:23:38.332Z,24.37
2022-08-17T21:26:20.168Z,24.70
2022-08-17T21:29:29.935Z,28.53
2022-08-17T21:32:15.867Z,27.30
2022-08-17T21:35:27.234Z,25.23
2022-08-17T21:38:03.604Z,27.20
2022-08-17T21:40:33.934Z,28.37
2022-08-17T21:43:25.686Z,31.10
2022-08-17T21:46:00.883Z,28.07
2022-08-17T21:48:31.257Z,31.93
2022-08-17T21:51:10.315Z,32.27
2022-08-17T21:53:44.541Z,32.40
2022-08-17T21:56:20.759Z,33.37
2022-08-17T21:58:57.058Z,31.87
2022-08-17T22:01:28.175Z,31.63
2022-08-17T22:04:00.751Z,38.80
2022-08-17T22:06:36.178Z,34.07
2022-08-17T22:09:13.991Z,31.57
2022-08-17T22:11:54.156Z,33.60
2022-08-17T22:14:26.320Z,37.13
2022-08-17T22:17:16.051Z,37.20
2022-08-17T22:19:47.135Z,32.93
2022-08-17T22:22:27.962Z,33.30
2022-08-17T22:24:59.042Z,37.37
2022-08-17T22:27:51.920Z,38.57
2022-08-17T22:30:34.454Z,36.53
2022-08-17T22:33:24.099Z,41.47
2022-08-17T22:36:11.548Z,44.13
2022-08-17T22:38:42.078Z,41.03
2022-08-17T22:41:24.626Z,46.83
2022-08-17T22:43:57.372Z,47.97
2022-08-17T22:46:26.711Z,49.03
2022-08-17T22:48:57.872Z,43.00
2022-08-17T22:51:30.163Z,41.53
2022-08-17T22:54:19.899Z,38.43
2022-08-17T22:57:10.051Z,38.20
2022-08-17T22:59:50.683Z,45.07
2022-08-17T23:02:25.284Z,42.80
2022-08-17T23:04:57.469Z,43.63
2022-08-17T23:07:25.857Z,44.23
2022-08-17T23:09:55.814Z,35.93
2022-08-17T23:12:27.439Z,36.97
2022-08-17T23:15:01.651Z,43.50
2022-08-17T23:17:36.894Z,39.17
2022-08-17T23:20:08.514Z,38.03
2022-08-17T23:22:38.221Z,33.00
2022-08-17T23:25:26.786Z,35.60
2022-08-17T23:27:55.632Z,32.90
2022-08-17T23:30:25.395Z,33.20
2022-08-17T23:32:54.248Z,35.17
2022-08-17T23:35:40.614Z,31.67
2022-08-17T23:38:10.235Z,32.03
2022-08-17T23:40:40.298Z,31.10
2022-08-17T23:43:24.448Z,31.70
2022-08-17T23:45:54.698Z,30.17
2022-08-17T23:48:36.224Z,32.63
2022-08-17T23:51:09.722Z,35.20
2022-08-17T23:53:40.303Z,38.70
2022-08-17T23:56:11.610Z,36.30
2022-08-17T23:58:42.056Z,45.07
